createdAt,value
2022-12-07T00:01:10.472Z,90.30
2022-12-07T00:03:17.917Z,90.20
2022-12-07T00:05:24.834Z,90.30
2022-12-07T00:07:33.831Z,89.50
2022-12-07T00:09:40.992Z,89.10
2022-12-07T00:11:51.500Z,89.10
2022-12-07T00:13:59.090Z,89.00
2022-12-07T00:16:07.725Z,89.10
2022-12-07T00:18:14.632Z,89.40
2022-12-07T00:20:21.967Z,89.40
2022-12-07T00:22:28.843Z,89.00
2022-12-07T00:24:37.867Z,89.30
2022-12-07T00:26:46.592Z,88.80
2022-12-07T00:28:55.033Z,88.40
2022-12-07T00:31:06.733Z,88.50
2022-12-07T00:33:14.278Z,87.50
2022-12-07T00:35:21.402Z,87.50
2022-12-07T00:37:28.690Z,86.80
2022-12-07T00:39:37.558Z,86.30
2022-12-07T00:41:45.103Z,86.20
2022-12-07T00:43:53.047Z,85.80
2022-12-07T00:46:00.322Z,84.30
2022-12-07T00:48:07.718Z,83.70
2022-12-07T00:50:15.208Z,83.40
2022-12-07T00:52:22.287Z,82.40
2022-12-07T00:54:29.631Z,81.60
2022-12-07T00:56:39.014Z,81.60
2022-12-07T00:58:46.186Z,81.10
2022-12-07T01:00:53.166Z,80.60
2022-12-07T01:03:00.581Z,79.30
2022-12-07T01:05:07.784Z,79.00
2022-12-07T01:07:15.170Z,78.50
2022-12-07T01:09:22.249Z,78.30
2022-12-07T01:11:31.990Z,77.90
2022-12-07T01:13:40.706Z,76.80
2022-12-07T01:15:48.667Z,77.50
2022-12-07T01:17:56.712Z,76.40
2022-12-07T01:20:04.062Z,76.30
2022-12-07T01:22:11.406Z,75.50
2022-12-07T01:24:18.308Z,76.20
2022-12-07T01:26:27.177Z,75.40
2022-12-07T01:28:34.512Z,74.60
2022-12-07T01:30:43.428Z,75.00
2022-12-07T01:32:50.463Z,75.20
2022-12-07T01:34:57.553Z,73.70
2022-12-07T01:37:04.365Z,73.80
2022-12-07T01:39:13.775Z,73.80
2022-12-07T01:41:20.827Z,73.80
2022-12-07T01:43:29.903Z,72.80
2022-12-07T01:45:46.333Z,72.10
2022-12-07T01:47:57.681Z,72.10
2022-12-07T01:50:04.892Z,72.60
2022-12-07T01:52:20.287Z,73.20
2022-12-07T01:54:27.572Z,72.20
2022-12-07T01:56:35.930Z,72.70
2022-12-07T01:58:42.856Z,72.60
2022-12-07T02:00:52.036Z,72.70
2022-12-07T02:03:04.161Z,72.30
2022-12-07T02:05:12.235Z,71.20
2022-12-07T02:07:19.775Z,70.80
2022-12-07T02:09:27.211Z,71.30
2022-12-07T02:11:34.188Z,71.30
2022-12-07T02:13:42.652Z,70.60
2022-12-07T02:16:16.810Z,71.50
2022-12-07T02:18:36.818Z,71.00
2022-12-07T02:20:49.764Z,70.60
2022-12-07T02:23:36.831Z,70.50
2022-12-07T02:26:05.773Z,69.70
2022-12-07T02:28:23.143Z,70.20
2022-12-07T02:30:36.013Z,69.10
2022-12-07T02:32:53.140Z,68.90
2022-12-07T02:35:06.857Z,69.50
2022-12-07T02:37:21.616Z,67.90
2022-12-07T02:39:37.879Z,68.90
2022-12-07T02:41:51.698Z,69.30
2022-12-07T02:44:01.956Z,68.00
2022-12-07T02:46:14.334Z,68.30
2022-12-07T02:48:23.278Z,68.60
2022-12-07T02:50:30.579Z,68.50
2022-12-07T02:52:37.543Z,68.80
2022-12-07T02:54:45.130Z,68.40
2022-12-07T02:56:55.792Z,67.60
2022-12-07T02:59:13.777Z,66.50
2022-12-07T03:01:32.452Z,66.80
2022-12-07T03:03:41.760Z,66.00
2022-12-07T03:06:03.547Z,67.30
2022-12-07T03:08:17.677Z,67.20
2022-12-07T03:10:31.980Z,66.80
2022-12-07T03:12:47.657Z,67.20
2022-12-07T03:15:01.138Z,66.10
2022-12-07T03:17:17.279Z,65.50
2022-12-07T03:19:28.198Z,65.70
2022-12-07T03:21:39.631Z,65.40
2022-12-07T03:23:48.459Z,65.40
2022-12-07T03:26:01.825Z,66.00
2022-12-07T03:28:11.158Z,65.80
2022-12-07T03:30:21.821Z,65.80
2022-12-07T03:32:35.302Z,65.30
2022-12-07T03:34:49.496Z,65.20
2022-12-07T03:37:01.288Z,64.80
2022-12-07T03:39:17.120Z,64.80
2022-12-07T03:41:27.887Z,65.00
2022-12-07T03:43:35.325Z,64.90
2022-12-07T03:45:45.837Z,62.80
2022-12-07T03:48:06.583Z,63.00
2022-12-07T03:50:19.859Z,63.00
2022-12-07T03:52:32.313Z,63.60
2022-12-07T03:54:56.712Z,63.40
2022-12-07T03:57:05.620Z,63.30
2022-12-07T03:59:13.569Z,63.40
2022-12-07T04:01:22.264Z,63.10
2022-12-07T04:03:31.518Z,63.00
2022-12-07T04:05:39.006Z,61.80
2022-12-07T04:07:46.468Z,62.30
2022-12-07T04:09:53.984Z,62.20
2022-12-07T04:12:01.526Z,61.90
2022-12-07T04:14:23.654Z,61.80
2022-12-07T04:16:31.069Z,61.70
2022-12-07T04:18:39.811Z,61.80
2022-12-07T04:20:47.147Z,61.40
2022-12-07T04:22:54.072Z,61.70
2022-12-07T04:25:01.356Z,61.40
2022-12-07T04:27:08.436Z,60.90
2022-12-07T04:29:15.975Z,60.50
2022-12-07T04:31:23.135Z,60.90
2022-12-07T04:33:32.595Z,60.90
2022-12-07T04:35:41.821Z,60.40
2022-12-07T04:37:49.108Z,60.30
2022-12-07T04:39:56.492Z,60.30
2022-12-07T04:42:04.601Z,60.30
2022-12-07T04:44:12.852Z,58.70
2022-12-07T04:46:20.024Z,59.20
2022-12-07T04:48:27.317Z,58.70
2022-12-07T04:50:34.293Z,59.20
2022-12-07T04:52:48.287Z,59.00
2022-12-07T04:54:55.826Z,59.10
2022-12-07T04:57:03.676Z,59.00
2022-12-07T04:59:10.804Z,59.40
2022-12-07T05:01:19.570Z,59.40
2022-12-07T05:03:26.703Z,59.80
2022-12-07T05:05:34.242Z,59.70
2022-12-07T05:07:42.946Z,59.50
2022-12-07T05:09:50.250Z,58.80
2022-12-07T05:11:57.427Z,59.10
2022-12-07T05:14:05.170Z,59.00
2022-12-07T05:16:12.258Z,58.30
2022-12-07T05:18:19.482Z,58.50
2022-12-07T05:20:26.459Z,58.50
2022-12-07T05:22:33.744Z,58.60
2022-12-07T05:24:43.025Z,58.80
2022-12-07T05:26:50.615Z,59.20
2022-12-07T05:28:58.776Z,59.00
2022-12-07T05:31:05.994Z,58.30
2022-12-07T05:33:13.342Z,58.70
2022-12-07T05:35:20.520Z,58.90
2022-12-07T05:37:28.007Z,58.80
2022-12-07T05:39:34.934Z,58.00
2022-12-07T05:42:00.396Z,58.40
2022-12-07T05:44:07.373Z,58.30
2022-12-07T05:46:14.675Z,58.40
2022-12-07T05:48:21.681Z,58.40
2022-12-07T05:50:29.942Z,58.20
2022-12-07T05:52:42.755Z,58.20
2022-12-07T05:54:50.140Z,58.30
2022-12-07T05:56:58.961Z,57.60
2022-12-07T05:59:22.987Z,57.60
2022-12-07T06:01:30.423Z,57.50
2022-12-07T06:03:37.759Z,57.80
2022-12-07T06:05:45.364Z,57.80
2022-12-07T06:07:52.853Z,57.80
2022-12-07T06:10:00.769Z,57.60
2022-12-07T06:12:26.812Z,58.00
2022-12-07T06:14:34.045Z,57.60
2022-12-07T06:16:41.450Z,57.40
2022-12-07T06:18:48.613Z,57.50
2022-12-07T06:20:56.001Z,57.20
2022-12-07T06:23:03.130Z,57.40
2022-12-07T06:25:11.949Z,57.20
2022-12-07T06:27:20.617Z,57.30
2022-12-07T06:29:27.697Z,57.10
2022-12-07T06:31:34.771Z,56.70
2022-12-07T06:33:42.264Z,56.20
2022-12-07T06:35:49.192Z,56.30
2022-12-07T06:37:56.319Z,56.70
2022-12-07T06:40:03.840Z,56.70
2022-12-07T06:42:11.611Z,56.50
2022-12-07T06:44:20.578Z,56.50
2022-12-07T06:46:28.008Z,56.30
2022-12-07T06:48:35.864Z,56.20
2022-12-07T06:50:43.098Z,56.10
2022-12-07T06:52:50.175Z,56.40
2022-12-07T06:54:57.509Z,55.60
2022-12-07T06:57:04.435Z,55.30
2022-12-07T06:59:12.077Z,55.70
2022-12-07T07:01:22.698Z,55.70
2022-12-07T07:03:30.179Z,55.50
2022-12-07T07:05:37.775Z,56.10
2022-12-07T07:08:12.900Z,56.60
2022-12-07T07:10:13.023Z,56.60
2022-12-07T07:12:20.359Z,56.20
2022-12-07T07:14:27.388Z,55.70
2022-12-07T07:16:36.698Z,55.60
2022-12-07T07:18:44.004Z,55.40
2022-12-07T07:20:51.389Z,54.70
2022-12-07T07:22:59.646Z,55.20
2022-12-07T07:25:07.190Z,55.40
2022-12-07T07:27:14.267Z,55.60
2022-12-07T07:29:21.856Z,55.30
2022-12-07T07:31:28.991Z,55.50
2022-12-07T07:33:38.067Z,55.80
2022-12-07T07:35:45.296Z,54.50
2022-12-07T07:37:52.888Z,54.60
2022-12-07T07:40:00.336Z,55.20
2022-12-07T07:42:08.070Z,55.40
2022-12-07T07:44:15.713Z,55.50
2022-12-07T07:46:22.902Z,54.90
2022-12-07T07:48:30.127Z,54.40
2022-12-07T07:50:39.348Z,55.10
2022-12-07T07:52:47.051Z,55.10
2022-12-07T07:54:54.694Z,55.20
2022-12-07T07:57:01.619Z,55.10
2022-12-07T07:59:08.903Z,55.40
2022-12-07T08:01:17.101Z,55.70
2022-12-07T08:03:24.602Z,55.50
2022-12-07T08:05:31.778Z,55.80
2022-12-07T08:07:40.833Z,55.90
2022-12-07T08:12:14.110Z,55.70
2022-12-07T08:14:21.343Z,55.40
2022-12-07T08:16:28.863Z,54.70
2022-12-07T08:18:39.086Z,54.70
2022-12-07T08:20:46.899Z,55.10
2022-12-07T08:22:55.496Z,54.60
2022-12-07T08:25:02.920Z,54.90
2022-12-07T08:27:10.067Z,55.30
2022-12-07T08:29:17.297Z,55.60
2022-12-07T08:31:24.697Z,55.60
2022-12-07T08:33:32.483Z,55.60
2022-12-07T08:35:42.426Z,55.10
2022-12-07T08:37:49.661Z,55.70
2022-12-07T08:39:58.794Z,55.80
2022-12-07T08:42:05.918Z,55.50
2022-12-07T08:44:13.307Z,55.70
2022-12-07T08:46:25.978Z,56.10
2022-12-07T08:48:33.711Z,55.60
2022-12-07T08:50:47.622Z,55.70
2022-12-07T08:52:59.234Z,56.10
2022-12-07T08:55:09.742Z,56.10
2022-12-07T08:57:17.284Z,55.80
2022-12-07T08:59:25.798Z,56.00
2022-12-07T09:01:33.646Z,56.20
2022-12-07T09:03:40.772Z,56.60
2022-12-07T09:05:48.349Z,56.70
2022-12-07T09:07:59.316Z,56.80
2022-12-07T09:10:09.484Z,56.60
2022-12-07T09:12:16.717Z,56.70
2022-12-07T09:14:24.155Z,56.60
2022-12-07T09:16:31.807Z,57.20
2022-12-07T09:18:38.774Z,57.50
2022-12-07T09:20:46.010Z,57.40
2022-12-07T09:22:52.932Z,57.50
2022-12-07T09:25:00.170Z,57.30
2022-12-07T09:27:09.397Z,57.30
2022-12-07T09:29:16.987Z,57.20
2022-12-07T09:31:25.190Z,57.00
2022-12-07T09:33:33.194Z,56.90
2022-12-07T09:35:40.222Z,57.00
2022-12-07T09:37:47.661Z,57.10
2022-12-07T09:39:54.844Z,56.90
2022-12-07T09:42:03.507Z,57.00
2022-12-07T09:44:15.655Z,57.00
2022-12-07T09:46:24.729Z,56.70
2022-12-07T09:48:36.225Z,56.80
2022-12-07T09:50:45.085Z,57.30
2022-12-07T09:52:52.929Z,57.10
2022-12-07T09:55:00.674Z,57.40
2022-12-07T09:57:08.011Z,57.40
2022-12-07T09:59:21.719Z,57.40
2022-12-07T10:01:28.919Z,58.00
2022-12-07T10:03:36.622Z,58.00
2022-12-07T10:05:47.135Z,58.00
2022-12-07T10:07:54.492Z,58.10
2022-12-07T10:10:01.650Z,58.00
2022-12-07T10:12:11.033Z,58.10
2022-12-07T10:14:19.799Z,58.20
2022-12-07T10:16:42.199Z,58.50
2022-12-07T10:18:49.471Z,59.00
2022-12-07T10:21:06.180Z,59.30
2022-12-07T10:23:20.637Z,59.60
2022-12-07T10:25:30.681Z,59.80
2022-12-07T10:27:38.781Z,59.80
2022-12-07T10:29:53.028Z,59.90
2022-12-07T10:32:01.950Z,60.30
2022-12-07T10:34:26.540Z,60.40
2022-12-07T10:36:40.838Z,60.80
2022-12-07T10:38:51.193Z,60.80
2022-12-07T10:41:09.536Z,61.20
2022-12-07T10:43:23.426Z,61.10
2022-12-07T10:45:35.560Z,61.30
2022-12-07T10:47:51.664Z,61.20
2022-12-07T10:50:22.247Z,61.10
2022-12-07T10:52:44.428Z,61.20
2022-12-07T10:55:00.084Z,61.40
2022-12-07T10:57:36.668Z,61.60
2022-12-07T11:00:06.188Z,61.80
2022-12-07T11:02:30.545Z,62.00
2022-12-07T11:04:45.635Z,62.20
2022-12-07T11:07:02.401Z,62.20
2022-12-07T11:09:59.973Z,62.30
2022-12-07T11:12:07.855Z,62.30
2022-12-07T11:14:24.405Z,62.50
2022-12-07T11:16:47.666Z,62.60
2022-12-07T11:19:20.898Z,62.80
2022-12-07T11:21:35.142Z,63.10
2022-12-07T11:23:53.498Z,63.40
2022-12-07T11:26:10.100Z,63.70
2022-12-07T11:28:31.103Z,63.90
2022-12-07T11:30:45.658Z,64.60
2022-12-07T11:33:16.296Z,64.60
2022-12-07T11:35:35.506Z,64.90
2022-12-07T11:37:44.304Z,64.80
2022-12-07T11:39:56.166Z,64.90
2022-12-07T11:42:10.514Z,66.00
2022-12-07T11:44:30.189Z,66.10
2022-12-07T11:46:49.011Z,66.40
2022-12-07T11:49:05.907Z,66.10
2022-12-07T11:51:15.900Z,66.20
2022-12-07T11:53:26.117Z,66.30
2022-12-07T11:55:43.259Z,66.40
2022-12-07T11:57:55.162Z,66.50
2022-12-07T12:00:05.986Z,66.20
2022-12-07T12:02:19.667Z,66.40
2022-12-07T12:04:43.177Z,66.60
2022-12-07T12:06:52.841Z,66.60
2022-12-07T12:11:48.434Z,66.50
2022-12-07T12:14:38.955Z,66.60
2022-12-07T12:17:20.071Z,66.80
2022-12-07T12:19:34.884Z,66.90
2022-12-07T12:21:43.394Z,67.00
2022-12-07T12:23:55.028Z,67.30
2022-12-07T12:26:05.610Z,68.20
2022-12-07T12:28:27.447Z,68.10
2022-12-07T12:30:40.340Z,69.70
2022-12-07T12:32:48.998Z,69.60
2022-12-07T12:37:49.906Z,70.70
2022-12-07T12:40:32.721Z,69.50
2022-12-07T12:42:52.956Z,69.80
2022-12-07T12:45:24.766Z,68.80
2022-12-07T12:47:55.895Z,68.50
2022-12-07T12:50:23.338Z,68.20
2022-12-07T12:52:59.733Z,68.50
2022-12-07T12:55:22.282Z,68.40
2022-12-07T12:57:32.938Z,68.50
2022-12-07T12:59:43.139Z,68.70
2022-12-07T13:01:51.082Z,69.40
2022-12-07T13:03:59.246Z,70.20
2022-12-07T13:06:37.507Z,71.40
2022-12-07T13:08:46.541Z,74.40
2022-12-07T13:10:53.407Z,73.80
2022-12-07T13:13:01.722Z,74.70
2022-12-07T13:15:36.748Z,74.90
2022-12-07T13:18:08.084Z,76.40
2022-12-07T13:20:39.516Z,76.60
2022-12-07T13:22:53.942Z,76.10
2022-12-07T13:25:02.272Z,76.60
2022-12-07T13:27:15.624Z,76.40
2022-12-07T13:29:25.330Z,76.90
2022-12-07T13:31:38.625Z,77.10
2022-12-07T13:33:48.949Z,77.40
2022-12-07T13:36:02.072Z,77.60
2022-12-07T13:38:21.080Z,77.80
2022-12-07T13:40:28.912Z,77.40
2022-12-07T13:42:37.544Z,76.00
2022-12-07T13:44:45.747Z,75.70
2022-12-07T13:47:02.281Z,74.70
2022-12-07T13:49:21.923Z,74.60
2022-12-07T13:51:31.219Z,74.20
2022-12-07T13:53:38.848Z,73.90
2022-12-07T13:55:54.367Z,73.20
2022-12-07T13:58:01.926Z,72.90
2022-12-07T14:00:11.249Z,72.70
2022-12-07T14:02:34.427Z,72.60
2022-12-07T14:04:42.759Z,72.70
2022-12-07T14:06:53.783Z,72.50
2022-12-07T14:09:22.122Z,72.50
2022-12-07T14:11:34.103Z,72.80
2022-12-07T14:13:43.077Z,72.70
2022-12-07T14:15:55.998Z,73.00
2022-12-07T14:18:07.117Z,73.00
2022-12-07T14:20:34.832Z,72.80
2022-12-07T14:22:43.038Z,72.80
2022-12-07T14:24:50.473Z,72.90
2022-12-07T14:26:58.013Z,73.00
2022-12-07T14:29:36.481Z,73.00
2022-12-07T14:31:46.711Z,72.80
2022-12-07T14:33:55.639Z,73.40
2022-12-07T14:36:03.254Z,73.30
2022-12-07T14:38:12.068Z,73.00
2022-12-07T14:40:22.020Z,73.30
2022-12-07T14:42:32.317Z,73.20
2022-12-07T14:44:39.959Z,73.20
2022-12-07T14:46:47.751Z,73.40
2022-12-07T14:53:57.256Z,73.80
2022-12-07T14:56:05.070Z,73.50
2022-12-07T14:58:17.987Z,73.50
2022-12-07T15:00:26.399Z,73.60
2022-12-07T15:02:33.630Z,73.60
2022-12-07T15:04:42.486Z,74.00
2022-12-07T15:07:00.746Z,74.20
2022-12-07T15:09:07.976Z,74.30
2022-12-07T15:11:17.769Z,74.00
2022-12-07T15:13:41.232Z,73.90
2022-12-07T15:15:48.988Z,73.80
2022-12-07T15:17:56.670Z,74.00
2022-12-07T15:20:05.951Z,73.90
2022-12-07T15:22:13.246Z,73.90
2022-12-07T15:24:20.467Z,73.90
2022-12-07T15:26:27.443Z,73.80
2022-12-07T15:28:34.678Z,73.70
2022-12-07T15:30:42.788Z,73.30
2022-12-07T15:32:54.212Z,73.20
2022-12-07T15:35:01.567Z,73.50
2022-12-07T15:37:11.033Z,73.60
2022-12-07T15:39:18.061Z,73.50
2022-12-07T15:41:26.110Z,73.40
2022-12-07T15:43:49.474Z,73.00
2022-12-07T15:45:57.031Z,72.90
2022-12-07T15:48:27.998Z,73.00
2022-12-07T15:50:32.625Z,72.90
2022-12-07T15:52:41.548Z,72.90
2022-12-07T15:54:49.398Z,72.70
2022-12-07T15:56:56.636Z,72.70
2022-12-07T15:59:03.962Z,72.80
2022-12-07T16:01:15.843Z,72.60
2022-12-07T16:03:23.202Z,72.80
2022-12-07T16:05:32.779Z,72.80
2022-12-07T16:07:41.816Z,72.90
2022-12-07T16:09:49.189Z,73.10
2022-12-07T16:11:56.576Z,73.10
2022-12-07T16:14:03.602Z,72.40
2022-12-07T16:16:12.978Z,72.50
2022-12-07T16:18:20.019Z,72.40
2022-12-07T16:20:27.606Z,72.20
2022-12-07T16:22:34.736Z,72.40
2022-12-07T16:24:43.978Z,72.50
2022-12-07T16:26:51.098Z,72.40
2022-12-07T16:28:58.738Z,72.20
2022-12-07T16:31:07.711Z,72.20
2022-12-07T16:33:15.204Z,72.30
2022-12-07T16:35:22.280Z,72.30
2022-12-07T16:37:29.669Z,72.40
2022-12-07T16:39:37.708Z,72.00
2022-12-07T16:41:46.592Z,72.20
2022-12-07T16:43:53.721Z,72.20
2022-12-07T16:46:01.057Z,72.20
2022-12-07T16:48:08.852Z,72.00
2022-12-07T16:50:16.084Z,72.20
2022-12-07T16:52:23.525Z,72.20
2022-12-07T16:54:32.958Z,72.30
2022-12-07T16:56:40.038Z,72.40
2022-12-07T16:58:50.495Z,72.30
2022-12-07T17:00:57.554Z,72.60
2022-12-07T17:03:05.371Z,72.80
2022-12-07T17:05:12.962Z,73.20
2022-12-07T17:07:20.449Z,73.00
2022-12-07T17:09:27.427Z,73.10
2022-12-07T17:11:35.274Z,73.30
2022-12-07T17:13:58.229Z,73.60
2022-12-07T17:16:09.052Z,73.90
2022-12-07T17:18:16.072Z,74.10
2022-12-07T17:20:24.173Z,74.00
2022-12-07T17:22:31.050Z,74.20
2022-12-07T17:24:38.179Z,74.10
2022-12-07T17:26:47.513Z,74.00
2022-12-07T17:28:54.640Z,74.10
2022-12-07T17:31:02.042Z,74.30
2022-12-07T17:33:10.746Z,74.20
2022-12-07T17:35:18.132Z,74.30
2022-12-07T17:37:25.261Z,74.40
2022-12-07T17:39:33.316Z,74.50
2022-12-07T17:42:00.259Z,74.70
2022-12-07T17:44:10.513Z,74.70
2022-12-07T17:46:17.620Z,74.90
2022-12-07T17:48:38.087Z,75.10
2022-12-07T17:51:01.357Z,75.10
2022-12-07T17:53:14.723Z,75.60
2022-12-07T17:55:21.952Z,76.20
2022-12-07T17:57:29.238Z,76.80
2022-12-07T17:59:36.267Z,77.20
2022-12-07T18:01:45.053Z,77.90
2022-12-07T18:03:54.266Z,78.10
2022-12-07T18:06:03.551Z,78.50
2022-12-07T18:08:10.770Z,78.80
2022-12-07T18:10:18.369Z,79.10
2022-12-07T18:12:25.398Z,79.50
2022-12-07T18:14:32.937Z,79.70
2022-12-07T18:16:39.921Z,80.20
2022-12-07T18:18:52.515Z,80.30
2022-12-07T18:21:01.803Z,80.20
2022-12-07T18:23:09.243Z,80.50
2022-12-07T18:25:16.477Z,80.60
2022-12-07T18:27:23.912Z,81.00
2022-12-07T18:29:30.786Z,81.10
2022-12-07T18:31:38.678Z,80.60
2022-12-07T18:33:46.021Z,80.60
2022-12-07T18:35:53.405Z,81.20
2022-12-07T18:38:02.175Z,81.20
2022-12-07T18:40:11.099Z,81.40
2022-12-07T18:42:18.175Z,81.70
2022-12-07T18:44:25.767Z,82.00
2022-12-07T18:46:32.871Z,82.80
2022-12-07T18:48:40.488Z,83.20
2022-12-07T18:50:48.030Z,83.40
2022-12-07T18:52:55.212Z,83.20
2022-12-07T18:55:04.666Z,83.00
2022-12-07T18:57:12.187Z,83.50
2022-12-07T18:59:35.752Z,83.70
2022-12-07T19:01:44.018Z,83.70
2022-12-07T19:03:51.291Z,83.60
2022-12-07T19:05:59.088Z,84.00
2022-12-07T19:08:06.198Z,84.30
2022-12-07T19:10:15.958Z,84.40
2022-12-07T19:12:23.102Z,84.70
2022-12-07T19:14:31.807Z,84.70
2022-12-07T19:16:38.788Z,85.00
2022-12-07T19:18:50.965Z,85.10
2022-12-07T19:20:58.472Z,84.90
2022-12-07T19:23:05.756Z,85.30
2022-12-07T19:25:14.883Z,85.50
2022-12-07T19:27:22.527Z,85.30
2022-12-07T19:29:32.269Z,85.40
2022-12-07T19:31:40.453Z,85.40
2022-12-07T19:33:47.502Z,85.60
2022-12-07T19:35:54.939Z,85.50
2022-12-07T19:38:01.971Z,85.50
2022-12-07T19:40:10.275Z,85.60
2022-12-07T19:42:19.045Z,85.70
2022-12-07T19:44:27.762Z,85.80
2022-12-07T19:46:35.151Z,86.00
2022-12-07T19:48:42.481Z,86.40
2022-12-07T19:50:49.563Z,86.20
2022-12-07T19:52:57.360Z,86.60
2022-12-07T19:55:04.934Z,86.60
2022-12-07T19:57:16.891Z,87.00
2022-12-07T19:59:27.148Z,87.50
2022-12-07T20:01:34.924Z,88.30
2022-12-07T20:03:42.182Z,88.80
2022-12-07T20:05:49.926Z,89.90
2022-12-07T20:07:57.083Z,90.60
2022-12-07T20:10:04.027Z,90.50
2022-12-07T20:12:29.130Z,90.60
2022-12-07T20:14:38.257Z,90.40
2022-12-07T20:16:46.894Z,90.00
2022-12-07T20:18:57.898Z,89.70
2022-12-07T20:21:05.434Z,89.50
2022-12-07T20:23:12.820Z,89.60
2022-12-07T20:25:21.026Z,89.30
2022-12-07T20:27:28.263Z,89.20
2022-12-07T20:29:37.691Z,89.30
2022-12-07T20:31:44.772Z,89.30
2022-12-07T20:33:52.362Z,89.00
2022-12-07T20:36:03.641Z,88.90
2022-12-07T20:38:10.721Z,88.80
2022-12-07T20:40:17.851Z,88.90
2022-12-07T20:42:38.653Z,88.80
2022-12-07T20:44:47.318Z,89.00
2022-12-07T20:46:54.754Z,89.10
2022-12-07T20:49:03.472Z,89.00
2022-12-07T20:51:11.218Z,89.00
2022-12-07T20:53:18.295Z,89.40
2022-12-07T20:55:25.785Z,89.90
2022-12-07T20:57:32.762Z,90.40
2022-12-07T20:59:41.757Z,90.80
2022-12-07T21:01:51.378Z,91.40
2022-12-07T21:03:59.221Z,91.60
2022-12-07T21:06:07.018Z,91.70
2022-12-07T21:08:14.050Z,91.30
2022-12-07T21:10:21.639Z,91.10
2022-12-07T21:12:28.614Z,91.00
2022-12-07T21:14:36.309Z,90.70
2022-12-07T21:16:43.745Z,90.30
2022-12-07T21:18:54.110Z,90.20
2022-12-07T21:21:05.533Z,90.10
2022-12-07T21:23:13.123Z,90.10
2022-12-07T21:25:20.307Z,90.00
2022-12-07T21:27:27.641Z,89.90
2022-12-07T21:29:43.842Z,89.90
2022-12-07T21:31:51.974Z,90.10
2022-12-07T21:34:01.012Z,90.20
2022-12-07T21:36:09.064Z,90.50
2022-12-07T21:38:16.144Z,90.80
2022-12-07T21:40:23.991Z,91.00
2022-12-07T21:42:31.018Z,91.00
2022-12-07T21:44:38.558Z,90.80
2022-12-07T21:46:45.809Z,90.80
2022-12-07T21:48:56.457Z,90.80
2022-12-07T21:51:11.008Z,91.10
2022-12-07T21:53:18.961Z,91.40
2022-12-07T21:55:25.837Z,91.80
2022-12-07T21:57:34.500Z,92.20
2022-12-07T21:59:41.477Z,92.30
2022-12-07T22:01:49.468Z,92.70
2022-12-07T22:03:57.017Z,92.90
2022-12-07T22:06:04.812Z,93.20
2022-12-07T22:08:13.523Z,93.10
2022-12-07T22:10:29.109Z,93.30
2022-12-07T22:12:36.240Z,93.50
2022-12-07T22:15:00.311Z,93.60
2022-12-07T22:17:07.398Z,93.40
2022-12-07T22:19:14.528Z,93.00
2022-12-07T22:21:21.452Z,92.80
2022-12-07T22:23:30.324Z,92.50
2022-12-07T22:25:37.300Z,92.20
2022-12-07T22:27:45.148Z,92.50
2022-12-07T22:29:52.995Z,92.70
2022-12-07T22:32:09.233Z,92.70
2022-12-07T22:34:26.100Z,92.60
2022-12-07T22:36:33.336Z,92.30
2022-12-07T22:38:42.560Z,92.40
2022-12-07T22:40:49.846Z,92.50
2022-12-07T22:42:56.770Z,93.10
2022-12-07T22:45:04.222Z,93.40
2022-12-07T22:47:11.337Z,93.70
2022-12-07T22:49:20.817Z,94.20
2022-12-07T22:51:32.305Z,94.50
2022-12-07T22:53:41.333Z,94.70
2022-12-07T22:55:48.461Z,94.90
2022-12-07T22:57:56.001Z,94.50
2022-12-07T23:00:05.026Z,94.20
2022-12-07T23:02:16.724Z,94.80
2022-12-07T23:04:24.738Z,94.90
2022-12-07T23:06:33.278Z,95.10
2022-12-07T23:08:42.098Z,94.90
2022-12-07T23:10:51.175Z,94.90
2022-12-07T23:13:14.741Z,94.70
2022-12-07T23:15:22.739Z,95.10
2022-12-07T23:17:29.921Z,95.40
2022-12-07T23:19:37.412Z,95.10
2022-12-07T23:21:44.694Z,94.80
2022-12-07T23:23:54.487Z,95.40
2022-12-07T23:26:06.742Z,95.30
2022-12-07T23:28:14.234Z,95.10
2022-12-07T23:30:21.565Z,95.20
2022-12-07T23:32:28.897Z,95.30
2022-12-07T23:34:36.386Z,95.20
2022-12-07T23:36:43.567Z,95.00
2022-12-07T23:38:54.299Z,94.70
2022-12-07T23:41:02.438Z,94.50
2022-12-07T23:43:09.364Z,94.40
2022-12-07T23:45:16.697Z,94.70
2022-12-07T23:47:23.777Z,94.60
2022-12-07T23:49:31.469Z,94.60
2022-12-07T23:51:38.394Z,94.40
2022-12-07T23:53:47.523Z,94.30
2022-12-07T23:55:56.138Z,94.20
2022-12-07T23:58:03.782Z,94.10
